TimeEDT,TemperatureF,Dew PointF,Humidity,Sea Level PressureIn,VisibilityMPH,Wind Direction,Wind SpeedMPH,Gust SpeedMPH,PrecipitationIn,Events,Conditions,WindDirDegrees,DateUTC
12:53 AM,60.1,53.1,78,30.13,10.0,SW,6.9,-,N/A,,Partly Cloudy,230,2013-04-17 04:53:00
1:53 AM,60.1,54.0,80,30.12,10.0,WSW,6.9,-,N/A,,Mostly Cloudy,240,2013-04-17 05:53:00
2:53 AM,60.1,54.0,80,30.11,10.0,WSW,4.6,-,N/A,,Overcast,250,2013-04-17 06:53:00
3:53 AM,61.0,54.0,78,30.11,10.0,West,4.6,-,N/A,,Mostly Cloudy,270,2013-04-17 07:53:00
4:53 AM,60.1,55.0,83,30.09,8.0,Calm,Calm,-,0.00,Rain,Light Rain,0,2013-04-17 08:53:00
5:16 AM,60.8,55.4,82,30.10,10.0,Calm,Calm,-,0.01,,Overcast,0,2013-04-17 09:16:00
5:53 AM,59.0,55.9,90,30.10,10.0,Calm,Calm,-,0.01,,Overcast,0,2013-04-17 09:53:00
6:53 AM,59.0,55.0,87,30.14,10.0,NNE,10.4,-,0.00,,Overcast,20,2013-04-17 10:53:00
7:02 AM,57.2,50.0,77,30.17,10.0,NNE,11.5,-,N/A,,Overcast,20,2013-04-17 11:02:00
7:24 AM,57.2,48.2,72,30.19,10.0,North,11.5,-,N/A,,Overcast,10,2013-04-17 11:24:00
7:53 AM,55.9,46.9,72,30.19,10.0,North,9.2,-,N/A,,Overcast,10,2013-04-17 11:53:00
8:53 AM,55.9,45.0,67,30.21,10.0,NNE,9.2,-,N/A,,Overcast,30,2013-04-17 12:53:00
10:42 AM,59.0,42.8,55,30.23,10.0,NNE,5.8,-,N/A,,Overcast,20,2013-04-17 14:42:00
10:53 AM,59.0,42.1,53,30.22,10.0,North,6.9,-,N/A,,Overcast,360,2013-04-17 14:53:00
11:53 AM,60.1,39.0,46,30.21,10.0,North,5.8,-,N/A,,Overcast,10,2013-04-17 15:53:00
12:53 PM,64.0,37.9,38,30.19,10.0,NNE,5.8,-,N/A,,Scattered Clouds,30,2013-04-17 16:53:00
1:53 PM,68.0,37.0,32,30.17,10.0,Calm,Calm,-,N/A,,Clear,0,2013-04-17 17:53:00
2:53 PM,70.0,35.1,28,30.17,10.0,NNE,8.1,-,N/A,,Clear,30,2013-04-17 18:53:00
3:53 PM,70.0,30.0,23,30.17,10.0,Variable,3.5,-,N/A,,Clear,0,2013-04-17 19:53:00
4:53 PM,70.0,30.9,24,30.17,10.0,Calm,Calm,-,N/A,,Clear,0,2013-04-17 20:53:00
5:53 PM,71.1,33.1,25,30.17,10.0,Calm,Calm,-,N/A,,Clear,0,2013-04-17 21:53:00
6:53 PM,70.0,28.9,22,30.18,10.0,NNE,4.6,-,N/A,,Clear,30,2013-04-17 22:53:00
7:53 PM,68.0,30.0,24,30.19,10.0,NE,3.5,-,N/A,,Clear,50,2013-04-17 23:53:00
8:53 PM,61.0,42.1,50,30.22,10.0,SSE,11.5,-,N/A,,Clear,160,2013-04-18 00:53:00
9:53 PM,57.0,43.0,59,30.25,10.0,SSE,4.6,-,N/A,,Clear,160,2013-04-18 01:53:00
10:53 PM,55.9,43.0,62,30.25,10.0,South,5.8,-,N/A,,Clear,190,2013-04-18 02:53:00
11:53 PM,53.1,41.0,64,30.27,10.0,Calm,Calm,-,N/A,,Clear,0,2013-04-18 03:53:00